createdAt,value
2019-05-07T00:01:59.642Z,100429.49
2019-05-07T00:04:27.758Z,100424.27
2019-05-07T00:06:55.801Z,100422.95
2019-05-07T00:09:23.961Z,100422.30
2019-05-07T00:11:53.351Z,100419.68
2019-05-07T00:14:23.074Z,100408.39
2019-05-07T00:16:53.391Z,100412.45
2019-05-07T00:19:23.054Z,100411.29
2019-05-07T00:21:52.821Z,100403.89
2019-05-07T00:24:22.362Z,100403.84
2019-05-07T00:26:53.042Z,100404.16
2019-05-07T00:29:22.398Z,100395.66
2019-05-07T00:31:52.064Z,100392.18
2019-05-07T00:34:22.243Z,100392.01
2019-05-07T00:37:02.863Z,100388.86
2019-05-07T00:39:59.527Z,100391.63
2019-05-07T00:42:56.018Z,100387.05
2019-05-07T00:45:38.016Z,100392.41
2019-05-07T00:48:06.035Z,100387.00
2019-05-07T00:50:36.095Z,100384.22
2019-05-07T00:53:04.104Z,100384.17
2019-05-07T00:55:33.445Z,100379.23
2019-05-07T00:58:02.346Z,100378.69
2019-05-07T01:00:33.071Z,100380.64
2019-05-07T01:03:03.059Z,100370.80
2019-05-07T01:05:32.611Z,100376.98
2019-05-07T01:08:02.567Z,100376.12
2019-05-07T01:10:32.897Z,100376.61
2019-05-07T01:13:02.757Z,100376.40
2019-05-07T01:15:34.260Z,100371.97
2019-05-07T01:18:02.873Z,100371.92
2019-05-07T01:20:32.937Z,100373.81
2019-05-07T01:23:02.587Z,100365.09
2019-05-07T01:25:32.905Z,100365.52
2019-05-07T01:28:02.613Z,100364.83
2019-05-07T01:30:32.482Z,100366.75
2019-05-07T01:33:12.250Z,100361.19
2019-05-07T01:35:58.541Z,100366.56
2019-05-07T01:38:26.606Z,100362.31
2019-05-07T01:40:54.732Z,100357.25
2019-05-07T01:43:22.951Z,100358.68
2019-05-07T01:45:52.963Z,100359.80
2019-05-07T01:48:22.997Z,100353.44
2019-05-07T01:50:52.496Z,100357.62
2019-05-07T01:53:22.777Z,100356.78
2019-05-07T01:55:52.360Z,100351.16
2019-05-07T01:58:22.155Z,100355.51
2019-05-07T02:00:50.410Z,100358.91
2019-05-07T02:03:24.784Z,100355.42
2019-05-07T02:06:07.383Z,100355.91
2019-05-07T02:08:44.405Z,100352.63
2019-05-07T02:11:15.830Z,100356.66
2019-05-07T02:13:44.167Z,100354.69
2019-05-07T02:16:12.651Z,100352.23
2019-05-07T02:18:42.451Z,100352.17
2019-05-07T02:21:13.034Z,100357.36
2019-05-07T02:23:42.564Z,100356.98
2019-05-07T02:26:13.110Z,100359.08
2019-05-07T02:28:42.653Z,100350.67
2019-05-07T02:31:15.003Z,100355.34
2019-05-07T02:33:43.435Z,100362.49
2019-05-07T02:36:14.312Z,100359.33
2019-05-07T02:38:58.545Z,100361.42
2019-05-07T02:41:32.828Z,100356.14
2019-05-07T02:44:03.946Z,100361.65
2019-05-07T02:46:54.354Z,100361.80
2019-05-07T02:49:34.267Z,100352.27
2019-05-07T02:52:24.526Z,100357.89
2019-05-07T02:55:16.269Z,100357.48
2019-05-07T02:57:44.286Z,100358.60
2019-05-07T03:00:14.712Z,100364.78
2019-05-07T03:02:43.771Z,100362.17
2019-05-07T03:05:13.658Z,100359.57
2019-05-07T03:07:42.925Z,100360.20
2019-05-07T03:10:13.808Z,100361.98
2019-05-07T03:12:43.008Z,100362.25
2019-05-07T03:15:13.230Z,100366.80
2019-05-07T03:17:42.941Z,100369.06
2019-05-07T03:20:15.467Z,100372.64
2019-05-07T03:22:43.563Z,100374.76
2019-05-07T03:25:16.971Z,100368.24
2019-05-07T03:27:45.029Z,100366.94
2019-05-07T03:30:36.429Z,100366.31
2019-05-07T03:33:16.203Z,100361.09
2019-05-07T03:35:47.415Z,100364.11
2019-05-07T03:38:15.938Z,100375.66
2019-05-07T03:40:44.907Z,100371.06
2019-05-07T03:43:14.295Z,100370.51
2019-05-07T03:46:04.244Z,100365.11
2019-05-07T03:48:33.483Z,100369.02
2019-05-07T03:51:03.775Z,100368.19
2019-05-07T03:53:33.855Z,100366.52
2019-05-07T03:56:04.022Z,100362.13
2019-05-07T03:58:33.958Z,100370.31
2019-05-07T04:01:04.257Z,100366.41
2019-05-07T04:03:34.135Z,100361.12
2019-05-07T04:06:03.942Z,100355.91
2019-05-07T04:08:33.478Z,100359.00
2019-05-07T04:11:03.592Z,100357.21
2019-05-07T04:13:33.882Z,100361.94
2019-05-07T04:16:04.134Z,100361.16
2019-05-07T04:18:33.136Z,100361.30
2019-05-07T04:21:03.667Z,100356.38
2019-05-07T04:23:34.108Z,100353.78
2019-05-07T04:26:35.869Z,100358.02
2019-05-07T04:29:07.061Z,100357.53
2019-05-07T04:31:39.223Z,100363.83
2019-05-07T04:34:24.399Z,100361.59
2019-05-07T04:36:53.435Z,100359.92
2019-05-07T04:39:23.244Z,100364.20
2019-05-07T04:41:53.031Z,100369.59
2019-05-07T04:44:23.480Z,100367.33
2019-05-07T04:46:54.706Z,100363.62
2019-05-07T04:49:23.905Z,100368.45
2019-05-07T04:52:04.219Z,100365.59
2019-05-07T04:54:32.894Z,100364.81
2019-05-07T04:57:03.615Z,100362.39
2019-05-07T04:59:32.965Z,100364.74
2019-05-07T05:04:44.993Z,100360.76
2019-05-07T05:07:13.479Z,100362.92
2019-05-07T05:09:42.637Z,100360.53
2019-05-07T05:12:13.014Z,100369.70
2019-05-07T05:14:43.529Z,100370.94
2019-05-07T05:17:13.006Z,100367.77
2019-05-07T05:19:44.841Z,100363.29
2019-05-07T05:22:31.834Z,100363.21
2019-05-07T05:25:15.996Z,100366.70
2019-05-07T05:27:44.099Z,100370.88
2019-05-07T05:30:17.063Z,100370.97
2019-05-07T05:32:45.109Z,100371.70
2019-05-07T05:35:13.236Z,100369.83
2019-05-07T05:37:43.110Z,100373.84
2019-05-07T05:40:12.375Z,100377.20
2019-05-07T05:42:46.126Z,100375.99
2019-05-07T05:45:34.274Z,100374.32
2019-05-07T05:48:07.395Z,100380.59
2019-05-07T05:50:42.274Z,100371.48
2019-05-07T05:53:22.447Z,100378.25
2019-05-07T05:55:52.792Z,100373.25
2019-05-07T05:58:32.565Z,100375.97
2019-05-07T06:01:32.052Z,100377.69
2019-05-07T06:04:12.429Z,100377.93
2019-05-07T06:06:53.975Z,100379.00
2019-05-07T06:09:26.758Z,100378.38
2019-05-07T06:12:23.763Z,100371.65
2019-05-07T06:15:01.756Z,100376.12
2019-05-07T06:17:49.366Z,100375.84
2019-05-07T06:20:34.268Z,100377.08
2019-05-07T06:23:32.989Z,100378.94
2019-05-07T06:26:04.839Z,100384.25
2019-05-07T06:28:33.035Z,100387.47
2019-05-07T06:31:02.176Z,100385.55
2019-05-07T06:33:32.297Z,100377.11
2019-05-07T06:36:02.840Z,100380.25
2019-05-07T06:38:35.813Z,100371.47
2019-05-07T06:41:22.662Z,100367.39
2019-05-07T06:43:55.579Z,100364.30
2019-05-07T06:46:23.661Z,100367.78
2019-05-07T06:48:52.721Z,100366.20
2019-05-07T06:51:22.076Z,100364.92
2019-05-07T06:53:51.892Z,100362.97
2019-05-07T06:56:20.270Z,100365.27
2019-05-07T06:59:02.252Z,100361.51
2019-05-07T07:02:05.770Z,100360.16
2019-05-07T07:04:52.473Z,100361.48
2019-05-07T07:07:34.174Z,100359.31
2019-05-07T07:10:16.486Z,100358.47
2019-05-07T07:12:44.486Z,100349.28
2019-05-07T07:15:12.881Z,100349.60
2019-05-07T07:17:41.881Z,100357.59
2019-05-07T07:20:12.545Z,100353.47
2019-05-07T07:22:42.456Z,100356.69
2019-05-07T07:25:11.902Z,100352.19
2019-05-07T07:27:39.993Z,100359.02
2019-05-07T07:30:27.876Z,100356.33
2019-05-07T07:32:57.533Z,100361.33
2019-05-07T07:35:25.627Z,100355.74
2019-05-07T07:37:53.692Z,100352.27
2019-05-07T07:40:43.121Z,100348.03
2019-05-07T07:43:12.901Z,100345.52
2019-05-07T07:45:43.168Z,100343.06
2019-05-07T07:48:13.171Z,100340.66
2019-05-07T07:50:42.114Z,100338.80
2019-05-07T07:53:12.751Z,100324.95
2019-05-07T07:55:46.050Z,100321.48
2019-05-07T07:58:22.371Z,100323.56
2019-05-07T08:01:13.900Z,100313.02
2019-05-07T08:03:42.221Z,100308.59
2019-05-07T08:06:11.958Z,100307.28
2019-05-07T08:08:42.325Z,100307.80
2019-05-07T08:11:10.095Z,100305.03
2019-05-07T08:13:38.141Z,100295.66
2019-05-07T08:16:06.297Z,100289.72
2019-05-07T08:18:34.405Z,100284.88
2019-05-07T08:21:02.717Z,100276.83
2019-05-07T08:23:31.981Z,100270.55
2019-05-07T08:26:02.535Z,100264.98
2019-05-07T08:28:31.957Z,100258.14
2019-05-07T08:31:12.530Z,100267.92
2019-05-07T08:33:51.717Z,100271.73
2019-05-07T08:36:19.384Z,100262.79
2019-05-07T08:38:54.964Z,100255.62
2019-05-07T08:41:25.214Z,100259.80
2019-05-07T08:44:10.773Z,100253.63
2019-05-07T08:46:51.981Z,100255.89
2019-05-07T08:49:33.479Z,100253.34
2019-05-07T08:52:00.083Z,100244.04
2019-05-07T08:54:32.151Z,100236.45
2019-05-07T08:57:01.937Z,100246.78
2019-05-07T08:59:32.007Z,100243.52
2019-05-07T09:02:02.875Z,100236.37
2019-05-07T09:04:32.711Z,100231.56
2019-05-07T09:07:02.676Z,100232.61
2019-05-07T09:09:32.334Z,100234.17
2019-05-07T09:12:03.109Z,100232.75
2019-05-07T09:14:31.983Z,100226.45
2019-05-07T09:17:02.478Z,100228.01
2019-05-07T09:19:32.279Z,100222.42
2019-05-07T09:22:02.427Z,100218.45
2019-05-07T09:24:32.984Z,100218.91
2019-05-07T09:27:07.182Z,100219.23
2019-05-07T09:29:55.034Z,100214.70
2019-05-07T09:32:34.836Z,100211.23
2019-05-07T09:35:04.941Z,100203.77
2019-05-07T09:37:34.211Z,100200.20
2019-05-07T09:40:03.045Z,100193.92
2019-05-07T09:42:33.199Z,100194.08
2019-05-07T09:45:02.021Z,100196.36
2019-05-07T09:47:32.424Z,100192.81
2019-05-07T09:50:06.992Z,100191.60
2019-05-07T09:52:32.245Z,100191.71
2019-05-07T09:55:02.611Z,100188.83
2019-05-07T09:57:32.453Z,100187.02
2019-05-07T10:00:02.410Z,100177.48
2019-05-07T10:02:32.548Z,100177.58
2019-05-07T10:05:02.453Z,100175.82
2019-05-07T10:07:32.634Z,100167.59
2019-05-07T10:10:03.134Z,100164.21
2019-05-07T10:12:39.381Z,100158.11
2019-05-07T10:15:08.485Z,100160.33
2019-05-07T10:17:50.686Z,100155.55
2019-05-07T10:20:22.549Z,100158.21
2019-05-07T10:22:51.956Z,100155.72
2019-05-07T10:25:22.259Z,100148.72
2019-05-07T10:27:50.120Z,100148.53
2019-05-07T10:30:18.355Z,100134.11
2019-05-07T10:32:49.386Z,100136.55
2019-05-07T10:35:17.484Z,100141.13
2019-05-07T10:37:45.858Z,100129.35
2019-05-07T10:40:14.642Z,100129.09
2019-05-07T10:42:43.127Z,100118.05
2019-05-07T10:45:32.278Z,100112.38
2019-05-07T10:48:14.672Z,100111.27
2019-05-07T10:50:44.805Z,100106.15
2019-05-07T10:53:13.062Z,100105.81
2019-05-07T10:55:41.985Z,100108.21
2019-05-07T10:58:11.109Z,100108.98
2019-05-07T11:00:39.653Z,100102.70
2019-05-07T11:03:09.597Z,100104.30
2019-05-07T11:05:37.995Z,100106.42
2019-05-07T11:08:06.054Z,100094.25
2019-05-07T11:10:34.152Z,100096.06
2019-05-07T11:13:02.548Z,100089.45
2019-05-07T11:15:32.623Z,100087.35
2019-05-07T11:18:19.111Z,100078.52
2019-05-07T11:21:03.060Z,100078.08
2019-05-07T11:23:32.711Z,100069.25
2019-05-07T11:26:02.703Z,100061.22
2019-05-07T11:28:32.418Z,100055.14
2019-05-07T11:31:02.038Z,100055.28
2019-05-07T11:33:32.338Z,100053.55
2019-05-07T11:36:02.263Z,100053.81
2019-05-07T11:38:33.149Z,100046.09
2019-05-07T11:41:02.374Z,100038.24
2019-05-07T11:44:05.437Z,100044.29
2019-05-07T11:46:55.746Z,100038.17
2019-05-07T11:49:46.478Z,100036.84
2019-05-07T11:52:16.664Z,100037.94
2019-05-07T11:54:46.241Z,100031.01
2019-05-07T11:57:14.183Z,100032.69
2019-05-07T11:59:42.536Z,100025.55
2019-05-07T12:02:12.111Z,100028.73
2019-05-07T12:04:42.135Z,100021.45
2019-05-07T12:07:11.906Z,100019.50
2019-05-07T12:09:40.488Z,100015.23
2019-05-07T12:12:10.353Z,100011.36
2019-05-07T12:14:38.683Z,100006.44
2019-05-07T12:17:06.720Z,100006.09
2019-05-07T12:19:35.357Z,100000.89
2019-05-07T12:22:05.542Z,99999.45
2019-05-07T12:24:33.572Z,99999.95
2019-05-07T12:27:02.658Z,100001.87
2019-05-07T12:29:32.299Z,99993.87
2019-05-07T12:32:19.375Z,99999.14
2019-05-07T12:34:50.292Z,99995.11
2019-05-07T12:37:18.334Z,99991.45
2019-05-07T12:39:46.324Z,99991.26
2019-05-07T12:42:14.645Z,99990.38
2019-05-07T12:44:43.066Z,99986.86
2019-05-07T12:47:12.089Z,99983.48
2019-05-07T12:49:40.209Z,99987.78
2019-05-07T12:52:19.687Z,99979.08
2019-05-07T12:55:11.912Z,99979.68
2019-05-07T12:57:41.969Z,99980.64
2019-05-07T13:00:29.042Z,99976.27
2019-05-07T13:03:14.419Z,99980.92
2019-05-07T13:05:43.404Z,99978.72
2019-05-07T13:08:12.342Z,99975.50
2019-05-07T13:10:42.713Z,99974.81
2019-05-07T13:13:12.182Z,99968.64
2019-05-07T13:15:43.155Z,99968.74
2019-05-07T13:18:12.568Z,99965.33
2019-05-07T13:20:40.353Z,99958.70
2019-05-07T13:23:08.510Z,99955.39
2019-05-07T13:25:36.531Z,99951.06
2019-05-07T13:28:04.857Z,99948.95
2019-05-07T13:30:55.913Z,99940.32
2019-05-07T13:33:25.590Z,99947.39
2019-05-07T13:35:53.624Z,99941.80
2019-05-07T13:38:57.219Z,99934.81
2019-05-07T13:41:43.722Z,99928.73
2019-05-07T13:44:43.873Z,99918.31
2019-05-07T13:47:26.642Z,99919.17
2019-05-07T13:49:55.718Z,99911.23
2019-05-07T13:52:23.970Z,99904.10
2019-05-07T13:54:53.289Z,99903.20
2019-05-07T13:57:22.706Z,99895.91
2019-05-07T13:59:53.061Z,99898.77
2019-05-07T14:02:24.087Z,99895.24
2019-05-07T14:04:52.779Z,99895.75
2019-05-07T14:07:21.807Z,99886.37
2019-05-07T14:09:52.505Z,99882.70
2019-05-07T14:12:20.278Z,99883.12
2019-05-07T14:14:49.079Z,99883.56
2019-05-07T14:17:18.165Z,99883.21
2019-05-07T14:19:46.282Z,99875.46
2019-05-07T14:22:18.362Z,99879.03
2019-05-07T14:24:44.265Z,99876.38
2019-05-07T14:27:12.297Z,99882.27
2019-05-07T14:29:42.313Z,99873.00
2019-05-07T14:32:29.857Z,99872.17
2019-05-07T14:35:16.254Z,99877.91
2019-05-07T14:37:48.112Z,99865.88
2019-05-07T14:40:16.545Z,99863.28
2019-05-07T14:42:49.440Z,99862.78
2019-05-07T14:45:17.887Z,99864.17
2019-05-07T14:47:45.869Z,99865.25
2019-05-07T14:50:14.949Z,99864.70
2019-05-07T14:52:43.399Z,99860.69
2019-05-07T14:55:12.842Z,99862.86
2019-05-07T14:57:42.094Z,99852.39
2019-05-07T15:00:12.284Z,99848.64
2019-05-07T15:02:42.154Z,99850.00
2019-05-07T15:05:12.014Z,99854.55
2019-05-07T15:07:40.328Z,99848.91
2019-05-07T15:10:08.672Z,99848.64
2019-05-07T15:12:38.368Z,99833.37
2019-05-07T15:15:09.202Z,99840.83
2019-05-07T15:17:44.167Z,99838.61
2019-05-07T15:20:14.721Z,99841.20
2019-05-07T15:22:52.758Z,99838.45
2019-05-07T15:25:22.651Z,99842.42
2019-05-07T15:27:52.697Z,99843.43
2019-05-07T15:30:21.942Z,99838.81
2019-05-07T15:32:52.153Z,99846.22
2019-05-07T15:35:22.673Z,99837.26
2019-05-07T15:37:51.801Z,99840.34
2019-05-07T15:40:22.564Z,99835.20
2019-05-07T15:42:52.508Z,99827.72
2019-05-07T15:45:21.720Z,99821.05
2019-05-07T15:47:52.023Z,99813.24
2019-05-07T15:50:23.850Z,99812.59
2019-05-07T15:53:13.901Z,99805.41
2019-05-07T15:55:42.046Z,99810.52
2019-05-07T15:58:12.052Z,99807.77
2019-05-07T16:00:42.421Z,99803.37
2019-05-07T16:03:18.646Z,99797.16
2019-05-07T16:05:46.805Z,99794.66
2019-05-07T16:08:16.657Z,99793.95
2019-05-07T16:10:45.720Z,99783.75
2019-05-07T16:13:17.459Z,99779.95
2019-05-07T16:15:45.554Z,99776.36
2019-05-07T16:18:17.207Z,99772.56
2019-05-07T16:20:45.316Z,99770.88
2019-05-07T16:23:17.302Z,99766.06
2019-05-07T16:25:43.674Z,99765.63
2019-05-07T16:28:12.815Z,99767.13
2019-05-07T16:30:42.652Z,99769.23
2019-05-07T16:33:12.778Z,99759.85
2019-05-07T16:35:42.517Z,99761.94
2019-05-07T16:38:14.567Z,99758.16
2019-05-07T16:40:42.685Z,99748.79
2019-05-07T16:43:11.978Z,99753.70
2019-05-07T16:45:42.449Z,99749.13
2019-05-07T16:48:11.953Z,99744.52
2019-05-07T16:50:40.698Z,99738.92
2019-05-07T16:53:08.807Z,99730.91
2019-05-07T16:55:37.219Z,99727.37
2019-05-07T16:58:12.655Z,99729.20
2019-05-07T17:00:44.059Z,99720.66
2019-05-07T17:03:16.833Z,99729.93
2019-05-07T17:05:44.858Z,99722.11
2019-05-07T17:08:44.531Z,99723.13
2019-05-07T17:11:12.534Z,99720.13
2019-05-07T17:13:42.445Z,99716.09
2019-05-07T17:16:12.217Z,99714.70
2019-05-07T17:18:40.441Z,99713.80
2019-05-07T17:21:08.430Z,99710.22
2019-05-07T17:23:44.108Z,99711.92
2019-05-07T17:26:07.384Z,99711.77
2019-05-07T17:28:35.834Z,99718.08
2019-05-07T17:31:06.018Z,99720.36
2019-05-07T17:33:34.352Z,99717.08
2019-05-07T17:36:02.665Z,99721.53
2019-05-07T17:38:32.204Z,99710.30
2019-05-07T17:41:10.925Z,99705.50
2019-05-07T17:43:32.476Z,99709.73
2019-05-07T17:46:02.802Z,99699.34
2019-05-07T17:48:33.099Z,99705.41
2019-05-07T17:51:24.002Z,99704.84
2019-05-07T17:53:59.373Z,99701.34
2019-05-07T17:56:25.650Z,99705.52
2019-05-07T17:58:53.733Z,99691.84
2019-05-07T18:01:28.918Z,99695.52
2019-05-07T18:03:57.007Z,99689.28
2019-05-07T18:06:25.481Z,99688.87
2019-05-07T18:09:03.647Z,99690.55
2019-05-07T18:11:33.535Z,99692.30
2019-05-07T18:14:02.609Z,99693.55
2019-05-07T18:17:06.517Z,99680.39
2019-05-07T18:19:34.611Z,99678.39
2019-05-07T18:22:02.797Z,99687.02
2019-05-07T18:24:32.985Z,99677.57
2019-05-07T18:27:22.338Z,99686.75
2019-05-07T18:29:52.245Z,99695.13
2019-05-07T18:32:21.942Z,99692.08
2019-05-07T18:34:51.977Z,99694.64
2019-05-07T18:37:20.144Z,99694.52
2019-05-07T18:39:52.004Z,99687.72
2019-05-07T18:42:22.200Z,99689.45
2019-05-07T18:44:52.411Z,99692.73
2019-05-07T18:47:22.339Z,99687.83
2019-05-07T18:50:06.419Z,99688.98
2019-05-07T18:52:34.632Z,99688.28
2019-05-07T18:55:02.901Z,99688.11
2019-05-07T18:57:32.834Z,99686.28
2019-05-07T19:00:05.029Z,99681.81
2019-05-07T19:02:32.661Z,99680.30
2019-05-07T19:05:02.737Z,99684.89
2019-05-07T19:07:32.477Z,99687.87
2019-05-07T19:10:02.652Z,99688.12
2019-05-07T19:12:33.456Z,99681.81
2019-05-07T19:15:02.910Z,99684.84
2019-05-07T19:17:48.909Z,99692.16
2019-05-07T19:20:17.437Z,99685.39
2019-05-07T19:22:45.541Z,99681.80
2019-05-07T19:25:13.693Z,99679.75
2019-05-07T19:27:41.958Z,99678.27
2019-05-07T19:30:12.554Z,99690.05
2019-05-07T19:32:42.746Z,99684.73
2019-05-07T19:35:12.347Z,99687.92
2019-05-07T19:37:42.440Z,99680.41
2019-05-07T19:40:21.900Z,99687.84
2019-05-07T19:42:52.135Z,99679.13
2019-05-07T19:45:27.320Z,99683.17
2019-05-07T19:47:55.891Z,99684.78
2019-05-07T19:50:26.044Z,99681.62
2019-05-07T19:52:54.160Z,99680.87
2019-05-07T19:55:22.487Z,99674.09
2019-05-07T19:57:58.113Z,99674.83
2019-05-07T20:00:26.376Z,99669.47
2019-05-07T20:02:57.090Z,99667.76
2019-05-07T20:05:25.113Z,99662.70
2019-05-07T20:07:55.568Z,99662.53
2019-05-07T20:10:38.070Z,99655.72
2019-05-07T20:13:06.075Z,99656.39
2019-05-07T20:15:35.109Z,99650.34
2019-05-07T20:18:03.221Z,99654.14
2019-05-07T20:20:33.179Z,99648.91
2019-05-07T20:23:02.581Z,99639.92
2019-05-07T20:25:33.264Z,99643.13
2019-05-07T20:28:02.149Z,99636.86
2019-05-07T20:30:32.283Z,99630.00
2019-05-07T20:33:02.940Z,99630.56
2019-05-07T20:35:32.480Z,99626.93
2019-05-07T20:38:02.850Z,99624.62
2019-05-07T20:40:32.041Z,99622.61
2019-05-07T20:43:01.967Z,99618.91
2019-05-07T20:45:32.039Z,99621.07
2019-05-07T20:48:02.385Z,99617.44
2019-05-07T20:50:30.231Z,99614.91
2019-05-07T20:52:58.265Z,99618.98
2019-05-07T20:55:49.614Z,99610.69
2019-05-07T20:58:17.666Z,99612.22
2019-05-07T21:00:46.229Z,99604.14
2019-05-07T21:03:20.157Z,99604.47
2019-05-07T21:05:52.959Z,99606.41
2019-05-07T21:08:22.709Z,99612.81
2019-05-07T21:10:53.226Z,99608.47
2019-05-07T21:13:30.965Z,99602.61
2019-05-07T21:15:52.700Z,99595.38
2019-05-07T21:18:23.371Z,99586.80
2019-05-07T21:20:52.841Z,99578.77
2019-05-07T21:23:22.814Z,99574.73
2019-05-07T21:25:52.816Z,99577.08
2019-05-07T21:28:21.406Z,99583.27
2019-05-07T21:30:51.941Z,99573.33
2019-05-07T21:33:19.470Z,99568.91
2019-05-07T21:35:47.521Z,99572.37
2019-05-07T21:38:15.545Z,99572.47
2019-05-07T21:40:43.809Z,99568.61
2019-05-07T21:43:13.999Z,99567.94
2019-05-07T21:45:42.356Z,99562.77
2019-05-07T21:48:10.555Z,99557.62
2019-05-07T21:50:38.591Z,99566.22
2019-05-07T21:53:13.388Z,99557.63
2019-05-07T21:56:01.697Z,99565.30
2019-05-07T21:58:38.911Z,99561.57
2019-05-07T22:01:21.758Z,99564.59
2019-05-07T22:03:52.721Z,99567.36
2019-05-07T22:06:22.742Z,99560.27
2019-05-07T22:08:52.571Z,99551.43
2019-05-07T22:11:22.807Z,99551.05
2019-05-07T22:13:54.440Z,99541.41
2019-05-07T22:16:22.209Z,99543.95
2019-05-07T22:18:52.205Z,99542.52
2019-05-07T22:21:20.298Z,99550.24
2019-05-07T22:23:48.323Z,99544.25
2019-05-07T22:26:22.281Z,99543.53
2019-05-07T22:28:46.174Z,99542.63
2019-05-07T22:31:36.963Z,99540.21
2019-05-07T22:34:15.777Z,99534.23
2019-05-07T22:36:45.237Z,99529.34
2019-05-07T22:39:23.961Z,99527.03
2019-05-07T22:41:53.854Z,99527.22
2019-05-07T22:44:26.102Z,99519.73
2019-05-07T22:46:54.151Z,99518.42
2019-05-07T22:49:23.008Z,99511.33
2019-05-07T22:51:52.607Z,99511.03
2019-05-07T22:54:22.615Z,99501.90
2019-05-07T22:57:08.800Z,99501.09
2019-05-07T22:59:36.821Z,99488.14
2019-05-07T23:02:05.008Z,99486.40
2019-05-07T23:04:33.061Z,99480.53
2019-05-07T23:07:02.189Z,99474.67
2019-05-07T23:09:30.477Z,99474.25
2019-05-07T23:11:58.513Z,99474.97
2019-05-07T23:14:26.536Z,99473.34
2019-05-07T23:16:55.354Z,99475.05
2019-05-07T23:19:24.666Z,99473.13
2019-05-07T23:21:52.702Z,99468.37
2019-05-07T23:24:22.547Z,99470.92
2019-05-07T23:26:53.354Z,99460.56
2019-05-07T23:29:33.736Z,99458.36
2019-05-07T23:32:02.319Z,99463.62
2019-05-07T23:34:32.616Z,99463.83
2019-05-07T23:37:02.504Z,99470.28
2019-05-07T23:39:32.662Z,99472.98
2019-05-07T23:42:25.890Z,99471.08
2019-05-07T23:44:53.895Z,99473.38
2019-05-07T23:47:22.736Z,99468.53
2019-05-07T23:49:52.375Z,99468.02
2019-05-07T23:52:22.559Z,99478.45
2019-05-07T23:54:52.168Z,99476.63
2019-05-07T23:57:22.676Z,99470.55
2019-05-07T23:59:50.394Z,99478.62
